Aviation Digital Data Service (ADDS)

Output produced by METARs form (0842 UTC 24 March 2019)
found at http://www.aviationweather.gov/metar/data/
 
METAR text: RJCW 240800Z 27015KT 9999 FEW030 SCT050 M02/M11 Q1007
Conditions at: RJCW (WAKKANAI AIRPORT, JP) observed 0800 UTC 24 March 2019
Temperature: -2.0°C (28°F)
Dewpoint: -11.0°C (12°F) [RH = 50%]
Pressure (altimeter): 29.73 inches Hg (1007.0 mb)
Winds: from the W (270 degrees) at 17 MPH (15 knots; 7.7 m/s)
Visibility: 6 or more miles (10+ km)
Ceiling: at least 12,000 feet AGL
Clouds: few clouds at 3000 feet AGL
scattered clouds at 5000 feet AGL
Weather: no significant weather observed at this time

METAR text: RJCW 240700Z 27015KT 9999 FEW030 BKN040 M02/M12 Q1006
Conditions at: RJCW (WAKKANAI AIRPORT, JP) observed 0700 UTC 24 March 2019
Temperature: -2.0°C (28°F)
Dewpoint: -12.0°C (10°F) [RH = 46%]
Pressure (altimeter): 29.70 inches Hg (1006.0 mb)
Winds: from the W (270 degrees) at 17 MPH (15 knots; 7.7 m/s)
Visibility: 6 or more miles (10+ km)
Ceiling: 4000 feet AGL
Clouds: few clouds at 3000 feet AGL
broken clouds at 4000 feet AGL
Weather: no significant weather observed at this time

METAR text: RJCW 240600Z 29015KT 9999 FEW020 SCT050 M02/M11 Q1006
Conditions at: RJCW (WAKKANAI AIRPORT, JP) observed 0600 UTC 24 March 2019
Temperature: -2.0°C (28°F)
Dewpoint: -11.0°C (12°F) [RH = 50%]
Pressure (altimeter): 29.70 inches Hg (1006.0 mb)
Winds: from the WNW (290 degrees) at 17 MPH (15 knots; 7.7 m/s)
Visibility: 6 or more miles (10+ km)
Ceiling: at least 12,000 feet AGL
Clouds: few clouds at 2000 feet AGL
scattered clouds at 5000 feet AGL
Weather: no significant weather observed at this time

METAR text: RJCW 240500Z 29008KT 9999 FEW020 SCT040 M01/M10 Q1005
Conditions at: RJCW (WAKKANAI AIRPORT, JP) observed 0500 UTC 24 March 2019
Temperature: -1.0°C (30°F)
Dewpoint: -10.0°C (14°F) [RH = 50%]
Pressure (altimeter): 29.68 inches Hg (1005.0 mb)
Winds: from the WNW (290 degrees) at 9 MPH (8 knots; 4.1 m/s)
Visibility: 6 or more miles (10+ km)
Ceiling: at least 12,000 feet AGL
Clouds: few clouds at 2000 feet AGL
scattered clouds at 4000 feet AGL
Weather: no significant weather observed at this time

METAR text: RJCW 240400Z 34008KT 9999 FEW015 SCT040 M02/M06 Q1005
Conditions at: RJCW (WAKKANAI AIRPORT, JP) observed 0400 UTC 24 March 2019
Temperature: -2.0°C (28°F)
Dewpoint: -6.0°C (21°F) [RH = 74%]
Pressure (altimeter): 29.68 inches Hg (1005.0 mb)
Winds: from the NNW (340 degrees) at 9 MPH (8 knots; 4.1 m/s)
Visibility: 6 or more miles (10+ km)
Ceiling: at least 12,000 feet AGL
Clouds: few clouds at 1500 feet AGL
scattered clouds at 4000 feet AGL
Weather: no significant weather observed at this time

METAR text: RJCW 240300Z 31006KT 270V330 9999 FEW020 SCT040 M01/M07 Q1005
Conditions at: RJCW (WAKKANAI AIRPORT, JP) observed 0300 UTC 24 March 2019
Temperature: -1.0°C (30°F)
Dewpoint: -7.0°C (19°F) [RH = 64%]
Pressure (altimeter): 29.68 inches Hg (1005.0 mb)
Winds: from the NW (310 degrees) at 7 MPH (6 knots; 3.1 m/s)
Visibility: 6 or more miles (10+ km)
Ceiling: at least 12,000 feet AGL
Clouds: few clouds at 2000 feet AGL
scattered clouds at 4000 feet AGL
Weather: no significant weather observed at this time

METAR text: RJCW 240200Z 36003KT 9999 FEW020 SCT040 BKN070 M02/M09 Q1005
Conditions at: RJCW (WAKKANAI AIRPORT, JP) observed 0200 UTC 24 March 2019
Temperature: -2.0°C (28°F)
Dewpoint: -9.0°C (16°F) [RH = 59%]
Pressure (altimeter): 29.68 inches Hg (1005.0 mb)
Winds: from the N (360 degrees) at 3 MPH (3 knots; 1.5 m/s)
Visibility: 6 or more miles (10+ km)
Ceiling: 7000 feet AGL
Clouds: few clouds at 2000 feet AGL
scattered clouds at 4000 feet AGL
broken clouds at 7000 feet AGL
Weather: no significant weather observed at this time

METAR text: RJCW 240100Z 34007KT 300V010 6000 -SHSN FEW005 SCT030 BKN050 M03/M05 Q1005
Conditions at: RJCW (WAKKANAI AIRPORT, JP) observed 0100 UTC 24 March 2019
Temperature: -3.0°C (27°F)
Dewpoint: -5.0°C (23°F) [RH = 86%]
Pressure (altimeter): 29.68 inches Hg (1005.0 mb)
Winds: from the NNW (340 degrees) at 8 MPH (7 knots; 3.6 m/s)
Visibility: 4 miles ( 6 km)
Ceiling: 5000 feet AGL
Clouds: few clouds at 500 feet AGL
scattered clouds at 3000 feet AGL
broken clouds at 5000 feet AGL
Weather: -SHSN  (light snow showers)

METAR text: RJCW 240026Z 32009KT 3200 -SHSN FEW005 SCT020 BKN050 M03/M05 Q1005 RMK 1ST005 3CU020 7CU050 A2969
Conditions at: RJCW (WAKKANAI AIRPORT, JP) observed 0026 UTC 24 March 2019
Temperature: -3.0°C (27°F)
Dewpoint: -5.0°C (23°F) [RH = 86%]
Pressure (altimeter): 29.68 inches Hg (1005.0 mb)
Winds: from the NW (320 degrees) at 10 MPH (9 knots; 4.6 m/s)
Visibility: 1.99 miles (3.20 km)
Ceiling: 5000 feet AGL
Clouds: few clouds at 500 feet AGL
scattered clouds at 2000 feet AGL
broken clouds at 5000 feet AGL
Weather: -SHSN  (light snow showers)

METAR text: RJCW 240007Z 31007KT 3100 -SHSN FEW003 SCT020 BKN040 M04/M05 Q1005 RMK 1ST003 3CU020 6CU040 A2969
Conditions at: RJCW (WAKKANAI AIRPORT, JP) observed 0007 UTC 24 March 2019
Temperature: -4.0°C (25°F)
Dewpoint: -5.0°C (23°F) [RH = 93%]
Pressure (altimeter): 29.68 inches Hg (1005.0 mb)
Winds: from the NW (310 degrees) at 8 MPH (7 knots; 3.6 m/s)
Visibility: 1.93 miles (3.11 km)
Ceiling: 4000 feet AGL
Clouds: few clouds at 300 feet AGL
scattered clouds at 2000 feet AGL
broken clouds at 4000 feet AGL
Weather: -SHSN  (light snow showers)

METAR text: RJCW 240000Z 32007KT 4000 -SHSN FEW006 SCT030 BKN050 M04/M05 Q1005
Conditions at: RJCW (WAKKANAI AIRPORT, JP) observed 0000 UTC 24 March 2019
Temperature: -4.0°C (25°F)
Dewpoint: -5.0°C (23°F) [RH = 93%]
Pressure (altimeter): 29.68 inches Hg (1005.0 mb)
Winds: from the NW (320 degrees) at 8 MPH (7 knots; 3.6 m/s)
Visibility: 2.49 miles (4.01 km)
Ceiling: 5000 feet AGL
Clouds: few clouds at 600 feet AGL
scattered clouds at 3000 feet AGL
broken clouds at 5000 feet AGL
Weather: -SHSN  (light snow showers)

METAR text: RJCW 232330Z 33004KT 5000 -SHSN FEW015 SCT030 BKN050 M04/M05 Q1005
Conditions at: RJCW (WAKKANAI AIRPORT, JP) observed 2330 UTC 23 March 2019
Temperature: -4.0°C (25°F)
Dewpoint: -5.0°C (23°F) [RH = 93%]
Pressure (altimeter): 29.68 inches Hg (1005.0 mb)
Winds: from the NNW (330 degrees) at 5 MPH (4 knots; 2.1 m/s)
Visibility: 3 miles ( 5 km)
Ceiling: 5000 feet AGL
Clouds: few clouds at 1500 feet AGL
scattered clouds at 3000 feet AGL
broken clouds at 5000 feet AGL
Weather: -SHSN  (light snow showers)

METAR text: RJCW 230900Z 29010KT 260V320 9999 FEW030 BKN040 M03/M10 Q1007
Conditions at: RJCW (WAKKANAI AIRPORT, JP) observed 0900 UTC 23 March 2019
Temperature: -3.0°C (27°F)
Dewpoint: -10.0°C (14°F) [RH = 58%]
Pressure (altimeter): 29.73 inches Hg (1007.0 mb)
Winds: from the WNW (290 degrees) at 12 MPH (10 knots; 5.1 m/s)
Visibility: 6 or more miles (10+ km)
Ceiling: 4000 feet AGL
Clouds: few clouds at 3000 feet AGL
broken clouds at 4000 feet AGL
Weather: no significant weather observed at this time

METAR text: RJCW 230800Z 30010KT 9999 FEW020 SCT030 BKN040 M03/M10 Q1007
Conditions at: RJCW (WAKKANAI AIRPORT, JP) observed 0800 UTC 23 March 2019
Temperature: -3.0°C (27°F)
Dewpoint: -10.0°C (14°F) [RH = 58%]
Pressure (altimeter): 29.73 inches Hg (1007.0 mb)
Winds: from the WNW (300 degrees) at 12 MPH (10 knots; 5.1 m/s)
Visibility: 6 or more miles (10+ km)
Ceiling: 4000 feet AGL
Clouds: few clouds at 2000 feet AGL
scattered clouds at 3000 feet AGL
broken clouds at 4000 feet AGL
Weather: no significant weather observed at this time

METAR text: RJCW 230700Z 30010KT 9999 FEW020 BKN030 M03/M09 Q1007
Conditions at: RJCW (WAKKANAI AIRPORT, JP) observed 0700 UTC 23 March 2019
Temperature: -3.0°C (27°F)
Dewpoint: -9.0°C (16°F) [RH = 63%]
Pressure (altimeter): 29.73 inches Hg (1007.0 mb)
Winds: from the WNW (300 degrees) at 12 MPH (10 knots; 5.1 m/s)
Visibility: 6 or more miles (10+ km)
Ceiling: 3000 feet AGL
Clouds: few clouds at 2000 feet AGL
broken clouds at 3000 feet AGL
Weather: no significant weather observed at this time

METAR text: RJCW 230600Z 30011KT 9999 -SHSN FEW010 BKN020 M03/M06 Q1007
Conditions at: RJCW (WAKKANAI AIRPORT, JP) observed 0600 UTC 23 March 2019
Temperature: -3.0°C (27°F)
Dewpoint: -6.0°C (21°F) [RH = 80%]
Pressure (altimeter): 29.73 inches Hg (1007.0 mb)
Winds: from the WNW (300 degrees) at 13 MPH (11 knots; 5.7 m/s)
Visibility: 6 or more miles (10+ km)
Ceiling: 2000 feet AGL
Clouds: few clouds at 1000 feet AGL
broken clouds at 2000 feet AGL
Weather: -SHSN  (light snow showers)

METAR text: RJCW 230536Z 28012KT 6000 R08/0900VP2000U -SHSN FEW005 SCT020 M04/M08 Q1007 RMK 1ST005 4CU020 A2976 3000S
Conditions at: RJCW (WAKKANAI AIRPORT, JP) observed 0536 UTC 23 March 2019
Temperature: -4.0°C (25°F)
Dewpoint: -8.0°C (18°F) [RH = 74%]
Pressure (altimeter): 29.73 inches Hg (1007.0 mb)
Winds: from the W (280 degrees) at 14 MPH (12 knots; 6.2 m/s)
Visibility: 4 miles ( 6 km)
Ceiling: at least 12,000 feet AGL
Clouds: few clouds at 500 feet AGL
scattered clouds at 2000 feet AGL
Weather: -SHSN  (light snow showers)

METAR text: RJCW 230528Z 29013KT 1600 R08/0500VP2000U -SHSN FEW003 SCT005 BKN020 M04/M06 Q1007 RMK 1ST003 4ST005 5CU020 A2976 9999NE
Conditions at: RJCW (WAKKANAI AIRPORT, JP) observed 0528 UTC 23 March 2019
Temperature: -4.0°C (25°F)
Dewpoint: -6.0°C (21°F) [RH = 86%]
Pressure (altimeter): 29.73 inches Hg (1007.0 mb)
Winds: from the WNW (290 degrees) at 15 MPH (13 knots; 6.7 m/s)
Visibility: 0.99 miles (1.59 km)
Ceiling: 2000 feet AGL
Clouds: few clouds at 300 feet AGL
scattered clouds at 500 feet AGL
broken clouds at 2000 feet AGL
Weather: -SHSN  (light snow showers)

METAR text: RJCW 230521Z 31016KT 0500 R08/0500VP2000D SHSN VV005 M04/M07 Q1007 RMK A2976
Conditions at: RJCW (WAKKANAI AIRPORT, JP) observed 0521 UTC 23 March 2019
Temperature: -4.0°C (25°F)
Dewpoint: -7.0°C (19°F) [RH = 80%]
Pressure (altimeter): 29.73 inches Hg (1007.0 mb)
Winds: from the NW (310 degrees) at 18 MPH (16 knots; 8.2 m/s)
Visibility: 0.31 miles (0.50 km)
Ceiling: indefinite ceiling with vertical visibility of 500 feet AGL
Clouds: obscured sky
Weather: SHSN  (snow showers)

METAR text: RJCW 230520Z 31017KT 2000 R08/0550VP2000D -SHSN FEW004 SCT010 BKN020 M04/M07 Q1007 RMK 1ST004 3ST010 6CU020 A2976
Conditions at: RJCW (WAKKANAI AIRPORT, JP) observed 0520 UTC 23 March 2019
Temperature: -4.0°C (25°F)
Dewpoint: -7.0°C (19°F) [RH = 80%]
Pressure (altimeter): 29.73 inches Hg (1007.0 mb)
Winds: from the NW (310 degrees) at 20 MPH (17 knots; 8.7 m/s)
Visibility: 1.24 miles (2.00 km)
Ceiling: 2000 feet AGL
Clouds: few clouds at 400 feet AGL
scattered clouds at 1000 feet AGL
broken clouds at 2000 feet AGL
Weather: -SHSN  (light snow showers)

METAR text: RJCW 230509Z 31014KT 4900 -SHSN FEW010 SCT020 BKN030 M03/M08 Q1007 RMK 1ST010 4CU020 6CU030 A2976 2000NW
Conditions at: RJCW (WAKKANAI AIRPORT, JP) observed 0509 UTC 23 March 2019
Temperature: -3.0°C (27°F)
Dewpoint: -8.0°C (18°F) [RH = 68%]
Pressure (altimeter): 29.73 inches Hg (1007.0 mb)
Winds: from the NW (310 degrees) at 16 MPH (14 knots; 7.2 m/s)
Visibility: 3 miles ( 5 km)
Ceiling: 3000 feet AGL
Clouds: few clouds at 1000 feet AGL
scattered clouds at 2000 feet AGL
broken clouds at 3000 feet AGL
Weather: -SHSN  (light snow showers)

METAR text: RJCW 230500Z 32013KT 9999 -SHSN FEW015 SCT025 M03/M08 Q1007
Conditions at: RJCW (WAKKANAI AIRPORT, JP) observed 0500 UTC 23 March 2019
Temperature: -3.0°C (27°F)
Dewpoint: -8.0°C (18°F) [RH = 68%]
Pressure (altimeter): 29.73 inches Hg (1007.0 mb)
Winds: from the NW (320 degrees) at 15 MPH (13 knots; 6.7 m/s)
Visibility: 6 or more miles (10+ km)
Ceiling: at least 12,000 feet AGL
Clouds: few clouds at 1500 feet AGL
scattered clouds at 2500 feet AGL
Weather: -SHSN  (light snow showers)

METAR text: RJCW 230400Z 31012KT 9999 FEW020 BKN030 M02/M10 Q1008
Conditions at: RJCW (WAKKANAI AIRPORT, JP) observed 0400 UTC 23 March 2019
Temperature: -2.0°C (28°F)
Dewpoint: -10.0°C (14°F) [RH = 54%]
Pressure (altimeter): 29.76 inches Hg (1008.0 mb)
Winds: from the NW (310 degrees) at 14 MPH (12 knots; 6.2 m/s)
Visibility: 6 or more miles (10+ km)
Ceiling: 3000 feet AGL
Clouds: few clouds at 2000 feet AGL
broken clouds at 3000 feet AGL
Weather: no significant weather observed at this time

METAR text: RJCW 230300Z 31010KT 9999 FEW020 BKN030 M03/M10 Q1008
Conditions at: RJCW (WAKKANAI AIRPORT, JP) observed 0300 UTC 23 March 2019
Temperature: -3.0°C (27°F)
Dewpoint: -10.0°C (14°F) [RH = 58%]
Pressure (altimeter): 29.76 inches Hg (1008.0 mb)
Winds: from the NW (310 degrees) at 12 MPH (10 knots; 5.1 m/s)
Visibility: 6 or more miles (10+ km)
Ceiling: 3000 feet AGL
Clouds: few clouds at 2000 feet AGL
broken clouds at 3000 feet AGL
Weather: no significant weather observed at this time

METAR text: RJCW 230200Z 33011KT 9999 FEW015 SCT020 BKN030 M03/M09 Q1008
Conditions at: RJCW (WAKKANAI AIRPORT, JP) observed 0200 UTC 23 March 2019
Temperature: -3.0°C (27°F)
Dewpoint: -9.0°C (16°F) [RH = 63%]
Pressure (altimeter): 29.76 inches Hg (1008.0 mb)
Winds: from the NNW (330 degrees) at 13 MPH (11 knots; 5.7 m/s)
Visibility: 6 or more miles (10+ km)
Ceiling: 3000 feet AGL
Clouds: few clouds at 1500 feet AGL
scattered clouds at 2000 feet AGL
broken clouds at 3000 feet AGL
Weather: no significant weather observed at this time

METAR text: RJCW 230100Z 33012KT 9999 -SHSN FEW005 BKN020 BKN030 M04/M08 Q1008
Conditions at: RJCW (WAKKANAI AIRPORT, JP) observed 0100 UTC 23 March 2019
Temperature: -4.0°C (25°F)
Dewpoint: -8.0°C (18°F) [RH = 74%]
Pressure (altimeter): 29.76 inches Hg (1008.0 mb)
Winds: from the NNW (330 degrees) at 14 MPH (12 knots; 6.2 m/s)
Visibility: 6 or more miles (10+ km)
Ceiling: 2000 feet AGL
Clouds: few clouds at 500 feet AGL
broken clouds at 2000 feet AGL
broken clouds at 3000 feet AGL
Weather: -SHSN  (light snow showers)

METAR text: RJCW 230043Z 35012KT 4900 R08/2000N -SHSN FEW005 SCT015 BKN020 M04/M08 Q1008 RMK 1ST005 4ST015 6CU020 A2979
Conditions at: RJCW (WAKKANAI AIRPORT, JP) observed 0043 UTC 23 March 2019
Temperature: -4.0°C (25°F)
Dewpoint: -8.0°C (18°F) [RH = 74%]
Pressure (altimeter): 29.76 inches Hg (1008.0 mb)
Winds: from the N (350 degrees) at 14 MPH (12 knots; 6.2 m/s)
Visibility: 3 miles ( 5 km)
Ceiling: 2000 feet AGL
Clouds: few clouds at 500 feet AGL
scattered clouds at 1500 feet AGL
broken clouds at 2000 feet AGL
Weather: -SHSN  (light snow showers)

METAR text: RJCW 230022Z 35013KT 7000 -SHSN FEW005 SCT015 BKN020 M04/M08 Q1008 RMK 1ST005 3ST015 5CU020 A2979
Conditions at: RJCW (WAKKANAI AIRPORT, JP) observed 0022 UTC 23 March 2019
Temperature: -4.0°C (25°F)
Dewpoint: -8.0°C (18°F) [RH = 74%]
Pressure (altimeter): 29.76 inches Hg (1008.0 mb)
Winds: from the N (350 degrees) at 15 MPH (13 knots; 6.7 m/s)
Visibility: 4 miles ( 7 km)
Ceiling: 2000 feet AGL
Clouds: few clouds at 500 feet AGL
scattered clouds at 1500 feet AGL
broken clouds at 2000 feet AGL
Weather: -SHSN  (light snow showers)

METAR text: RJCW 230000Z 33012KT 3500 -SHSN FEW005 SCT015 BKN020 M04/M07 Q1008
Conditions at: RJCW (WAKKANAI AIRPORT, JP) observed 0000 UTC 23 March 2019
Temperature: -4.0°C (25°F)
Dewpoint: -7.0°C (19°F) [RH = 80%]
Pressure (altimeter): 29.76 inches Hg (1008.0 mb)
Winds: from the NNW (330 degrees) at 14 MPH (12 knots; 6.2 m/s)
Visibility: 2.17 miles (3.49 km)
Ceiling: 2000 feet AGL
Clouds: few clouds at 500 feet AGL
scattered clouds at 1500 feet AGL
broken clouds at 2000 feet AGL
Weather: -SHSN  (light snow showers)

METAR text: RJCW 222334Z 36012KT 4900 -SHSN FEW005 SCT015 BKN020 M04/M07 Q1008 RMK 1ST005 4ST015 5CU020 A2978
Conditions at: RJCW (WAKKANAI AIRPORT, JP) observed 2334 UTC 22 March 2019
Temperature: -4.0°C (25°F)
Dewpoint: -7.0°C (19°F) [RH = 80%]
Pressure (altimeter): 29.76 inches Hg (1008.0 mb)
Winds: from the N (360 degrees) at 14 MPH (12 knots; 6.2 m/s)
Visibility: 3 miles ( 5 km)
Ceiling: 2000 feet AGL
Clouds: few clouds at 500 feet AGL
scattered clouds at 1500 feet AGL
broken clouds at 2000 feet AGL
Weather: -SHSN  (light snow showers)

METAR text: RJCW 222330Z 35012KT 8000 -SHSN FEW005 SCT015 BKN025 M04/M07 Q1008
Conditions at: RJCW (WAKKANAI AIRPORT, JP) observed 2330 UTC 22 March 2019
Temperature: -4.0°C (25°F)
Dewpoint: -7.0°C (19°F) [RH = 80%]
Pressure (altimeter): 29.76 inches Hg (1008.0 mb)
Winds: from the N (350 degrees) at 14 MPH (12 knots; 6.2 m/s)
Visibility: 5 miles ( 8 km)
Ceiling: 2500 feet AGL
Clouds: few clouds at 500 feet AGL
scattered clouds at 1500 feet AGL
broken clouds at 2500 feet AGL
Weather: -SHSN  (light snow showers)